Time;durP1;ratioP1;P1;durP2;ratioP2;P2;SDS_P1;SDS_P2;PMS_P1;PMS_P2;Temp;Humidity;BMP_temperature;BMP_pressure;BME280_temperature;BME280_humidity;BME280_pressure;Samples;Min_cycle;Max_cycle;Signal;HPM_P1;HPM_P2
2022/05/10 00:00:35;;;;;;;13.75;6.78;;;12.70;99.90;;;;;;5029952;28;20033;-51
2022/05/10 00:03:04;;;;;;;11.52;5.45;;;12.50;99.90;;;;;;5029880;28;20242;-51
2022/05/10 00:05:41;;;;;;;12.27;6.63;;;12.50;99.90;;;;;;5028408;28;20028;-51
2022/05/10 00:08:10;;;;;;;11.23;5.90;;;12.50;99.90;;;;;;5029793;28;20029;-50
2022/05/10 00:10:36;;;;;;;14.18;6.93;;;12.40;99.90;;;;;;5029439;28;20831;-51
2022/05/10 00:13:03;;;;;;;11.85;5.53;;;12.30;99.90;;;;;;5029373;28;20044;-51
2022/05/10 00:15:28;;;;;;;14.95;5.95;;;12.40;99.90;;;;;;5029775;28;20481;-50
2022/05/10 00:17:54;;;;;;;11.98;6.15;;;12.40;99.90;;;;;;5029561;28;20036;-51
2022/05/10 00:20:22;;;;;;;16.90;6.30;;;12.40;99.90;;;;;;5029184;28;20051;-51
2022/05/10 00:22:48;;;;;;;16.40;5.90;;;12.40;99.90;;;;;;5029659;28;20053;-50
2022/05/10 00:25:17;;;;;;;15.05;6.07;;;12.40;99.90;;;;;;5029892;28;20096;-51
2022/05/10 00:27:43;;;;;;;10.43;5.60;;;12.30;99.90;;;;;;5028064;28;20037;-51
2022/05/10 00:30:09;;;;;;;14.88;6.32;;;12.30;99.90;;;;;;5040428;28;20108;-50
2022/05/10 00:32:37;;;;;;;11.90;6.23;;;12.20;99.90;;;;;;5049273;28;20094;-51
2022/05/10 00:35:11;;;;;;;12.95;6.13;;;12.10;99.90;;;;;;5049673;28;20124;-50
2022/05/10 00:37:37;;;;;;;12.00;5.82;;;12.00;99.90;;;;;;5040071;28;20560;-51
2022/05/10 00:40:03;;;;;;;15.07;6.80;;;12.00;99.90;;;;;;5029297;28;20032;-50
2022/05/10 00:42:36;;;;;;;16.48;6.40;;;11.70;99.90;;;;;;5029168;28;20064;-50
2022/05/10 00:45:08;;;;;;;17.83;6.57;;;11.80;99.90;;;;;;5029427;28;20053;-50
2022/05/10 00:47:44;;;;;;;11.15;6.20;;;11.80;99.90;;;;;;5029730;28;20109;-51
2022/05/10 00:50:36;;;;;;;16.48;6.18;;;11.80;99.90;;;;;;5029120;28;20029;-50
2022/05/10 00:53:07;;;;;;;15.95;6.05;;;11.60;99.90;;;;;;5029328;28;20144;-51
2022/05/10 00:55:45;;;;;;;13.05;6.35;;;11.60;99.90;;;;;;5029890;28;20087;-50
2022/05/10 00:58:37;;;;;;;13.60;5.90;;;11.60;99.90;;;;;;5029308;28;20504;-50
2022/05/10 01:01:03;;;;;;;13.23;6.57;;;11.60;99.90;;;;;;5029103;28;20033;-51
2022/05/10 01:03:34;;;;;;;13.60;6.13;;;11.40;99.90;;;;;;5029436;28;20068;-51
2022/05/10 01:06:33;;;;;;;13.55;5.90;;;11.30;99.90;;;;;;5029846;28;20026;-51
2022/05/10 01:09:16;;;;;;;16.00;6.25;;;11.30;99.90;;;;;;5028979;28;20030;-51
2022/05/10 01:11:51;;;;;;;13.05;5.95;;;11.30;99.90;;;;;;5028901;28;20452;-50
2022/05/10 01:14:24;;;;;;;15.85;6.65;;;11.30;99.90;;;;;;5028947;28;20116;-50
2022/05/10 01:16:50;;;;;;;16.77;6.72;;;11.20;99.90;;;;;;5029246;28;20052;-50
2022/05/10 01:19:16;;;;;;;17.20;7.18;;;11.30;99.90;;;;;;5029377;28;20060;-50
2022/05/10 01:22:13;;;;;;;15.45;6.10;;;11.30;99.90;;;;;;5028974;28;20124;-50
2022/05/10 01:24:56;;;;;;;13.02;6.57;;;11.30;99.90;;;;;;5025437;28;20400;-50
2022/05/10 01:27:37;;;;;;;15.35;6.97;;;11.30;99.90;;;;;;5032457;28;20031;-50
2022/05/10 01:30:13;;;;;;;12.38;6.05;;;11.20;99.90;;;;;;5040730;28;20500;-50
2022/05/10 01:35:29;;;;;;;15.70;6.13;;;11.10;99.90;;;;;;5044197;28;20052;-50
2022/05/10 01:38:08;;;;;;;11.82;6.47;;;10.90;99.90;;;;;;5042694;28;20033;-50
2022/05/10 01:40:40;;;;;;;12.52;6.03;;;10.90;99.90;;;;;;5032221;28;20037;-51
2022/05/10 01:43:31;;;;;;;15.50;5.80;;;10.90;99.90;;;;;;5051003;28;20095;-51
2022/05/10 01:46:09;;;;;;;10.60;5.63;;;10.90;99.90;;;;;;5048111;28;20041;-50
2022/05/10 01:48:38;;;;;;;15.38;5.40;;;10.90;99.90;;;;;;5052278;28;20025;-50
2022/05/10 01:51:17;;;;;;;15.10;5.93;;;10.90;99.90;;;;;;5051707;28;20041;-50
2022/05/10 01:53:43;;;;;;;15.68;5.25;;;10.80;99.90;;;;;;5051635;28;20086;-50
2022/05/10 01:56:23;;;;;;;13.40;5.00;;;10.80;99.90;;;;;;5052296;28;20044;-50
2022/05/10 01:58:53;;;;;;;14.07;5.05;;;10.80;99.90;;;;;;5051795;28;20120;-50
2022/05/10 02:01:39;;;;;;;10.93;4.88;;;10.70;99.90;;;;;;5051728;28;20100;-51
2022/05/10 02:04:23;;;;;;;9.73;4.55;;;10.70;99.90;;;;;;5051879;28;20385;-50
2022/05/10 02:06:48;;;;;;;13.70;4.70;;;10.60;99.90;;;;;;5051625;28;20094;-50
2022/05/10 02:09:38;;;;;;;10.63;4.07;;;10.60;99.90;;;;;;5051908;28;20021;-50
2022/05/10 02:12:32;;;;;;;10.30;3.97;;;10.60;99.90;;;;;;5051242;28;20443;-50
2022/05/10 02:15:06;;;;;;;11.13;4.10;;;10.50;99.90;;;;;;5046525;28;20029;-50
2022/05/10 02:18:02;;;;;;;14.15;4.25;;;10.50;99.90;;;;;;5051614;28;20033;-50
2022/05/10 02:20:37;;;;;;;10.50;4.22;;;10.60;99.90;;;;;;5051384;28;20667;-50
2022/05/10 02:23:16;;;;;;;12.82;3.92;;;10.40;99.90;;;;;;5033255;28;20048;-50
2022/05/10 02:25:47;;;;;;;16.40;4.07;;;10.50;99.90;;;;;;5051346;28;20029;-50
2022/05/10 02:28:25;;;;;;;12.35;4.57;;;10.40;99.90;;;;;;5051401;28;20598;-51
2022/05/10 02:30:54;;;;;;;13.23;4.03;;;10.30;99.90;;;;;;5051038;28;20064;-50
2022/05/10 02:33:20;;;;;;;7.97;3.72;;;10.40;99.90;;;;;;5051254;28;20041;-51
2022/05/10 02:35:56;;;;;;;15.02;4.80;;;10.40;99.90;;;;;;5051402;28;20048;-51
2022/05/10 02:38:24;;;;;;;13.10;4.05;;;10.20;99.90;;;;;;5050772;28;20037;-51
2022/05/10 02:40:52;;;;;;;11.40;4.18;;;10.20;99.90;;;;;;5050538;28;20029;-50
2022/05/10 02:43:36;;;;;;;10.40;4.20;;;10.40;99.90;;;;;;5050939;28;20060;-50
2022/05/10 02:46:02;;;;;;;18.20;3.83;;;10.30;99.90;;;;;;5051323;28;20114;-50
2022/05/10 02:48:34;;;;;;;8.35;4.18;;;10.30;99.90;;;;;;5050858;28;20021;-51
2022/05/10 02:51:00;;;;;;;6.57;3.83;;;10.20;99.90;;;;;;5050773;28;20025;-51
2022/05/10 02:53:26;;;;;;;11.55;3.67;;;10.20;99.90;;;;;;5051074;28;20087;-51
2022/05/10 02:56:04;;;;;;;11.03;3.90;;;10.30;99.90;;;;;;5050844;28;20032;-50
2022/05/10 02:58:52;;;;;;;11.13;3.80;;;10.40;99.90;;;;;;5050517;28;20800;-50
2022/05/10 03:01:24;;;;;;;8.98;3.45;;;10.30;99.90;;;;;;5049849;28;20040;-50
2022/05/10 03:03:50;;;;;;;13.85;3.70;;;10.30;99.90;;;;;;5050742;28;20025;-51
2022/05/10 03:06:18;;;;;;;11.75;3.78;;;10.30;99.90;;;;;;5050613;28;20024;-50
2022/05/10 03:08:48;;;;;;;14.55;4.38;;;10.30;99.90;;;;;;5050738;28;20475;-50
2022/05/10 03:11:15;;;;;;;10.55;3.63;;;10.10;99.90;;;;;;5049908;28;20048;-50
2022/05/10 03:13:42;;;;;;;9.30;4.00;;;10.20;99.90;;;;;;5050487;28;20028;-50
2022/05/10 03:16:08;;;;;;;13.27;3.60;;;10.20;99.90;;;;;;5050437;28;20033;-51
2022/05/10 03:18:34;;;;;;;14.32;4.63;;;10.20;99.90;;;;;;5050148;28;20056;-51
2022/05/10 03:21:00;;;;;;;7.70;3.33;;;10.10;99.90;;;;;;5046414;28;20025;-51
2022/05/10 03:23:27;;;;;;;6.95;3.60;;;10.10;99.90;;;;;;5050230;28;20491;-52
2022/05/10 03:25:54;;;;;;;8.27;3.17;;;10.10;99.90;;;;;;5045507;28;20068;-51
2022/05/10 03:28:20;;;;;;;7.60;3.00;;;10.10;99.90;;;;;;5037688;28;20432;-50
2022/05/10 03:30:47;;;;;;;13.02;4.13;;;10.00;99.90;;;;;;5039957;28;20476;-50
2022/05/10 03:33:12;;;;;;;12.45;3.50;;;9.90;99.90;;;;;;5050137;28;20033;-50
2022/05/10 03:35:38;;;;;;;15.07;5.38;;;9.90;99.90;;;;;;5050484;28;20051;-50
2022/05/10 03:38:04;;;;;;;12.13;3.58;;;9.90;99.90;;;;;;5049963;28;20379;-51
2022/05/10 03:40:30;;;;;;;17.25;3.85;;;9.80;99.90;;;;;;5049542;28;20039;-51
2022/05/10 03:42:55;;;;;;;16.48;4.00;;;9.70;99.90;;;;;;5031566;28;20562;-51
2022/05/10 03:45:22;;;;;;;8.55;4.45;;;9.70;99.90;;;;;;5033592;28;20069;-50
2022/05/10 03:47:49;;;;;;;15.82;4.50;;;9.70;99.90;;;;;;5029692;28;20573;-51
2022/05/10 03:50:19;;;;;;;292.42;203.43;;;9.70;99.90;;;;;;5029298;28;20037;-51
2022/05/10 03:52:45;;;;;;;26.92;8.13;;;9.90;99.90;;;;;;5029848;28;20139;-51
2022/05/10 03:55:13;;;;;;;22.02;4.82;;;10.00;99.90;;;;;;5030029;28;20105;-50
2022/05/10 03:57:39;;;;;;;12.07;4.50;;;9.90;99.90;;;;;;5033342;28;20023;-50
2022/05/10 04:00:08;;;;;;;10.35;3.67;;;9.90;99.90;;;;;;5039119;28;20096;-51
2022/05/10 04:02:33;;;;;;;12.40;3.60;;;9.90;99.90;;;;;;5029039;28;20025;-50
2022/05/10 04:05:00;;;;;;;12.50;3.78;;;10.00;99.90;;;;;;5039086;28;20032;-51
2022/05/10 04:07:26;;;;;;;14.13;4.10;;;10.10;99.90;;;;;;5038907;28;20040;-50
2022/05/10 04:09:52;;;;;;;10.07;3.22;;;10.20;99.90;;;;;;5038220;28;20040;-50
2022/05/10 04:12:17;;;;;;;11.82;3.92;;;10.20;99.90;;;;;;5037438;28;20037;-50
2022/05/10 04:14:43;;;;;;;12.40;4.22;;;10.20;99.90;;;;;;5048753;28;20040;-51
2022/05/10 04:17:10;;;;;;;11.40;4.32;;;10.20;99.90;;;;;;5049264;28;20032;-50
2022/05/10 04:19:36;;;;;;;13.20;4.10;;;10.20;99.90;;;;;;5049072;28;20071;-50
2022/05/10 04:22:02;;;;;;;13.60;4.47;;;10.30;99.90;;;;;;5048979;28;20037;-50
2022/05/10 04:24:28;;;;;;;14.27;4.00;;;10.30;99.90;;;;;;5049158;28;20090;-51
2022/05/10 04:26:53;;;;;;;8.10;3.55;;;10.30;99.90;;;;;;5048856;28;20053;-50
2022/05/10 04:29:19;;;;;;;14.35;3.78;;;10.30;99.90;;;;;;5049298;28;20021;-50
2022/05/10 04:31:45;;;;;;;16.60;4.22;;;10.40;99.90;;;;;;5043234;28;20146;-50
2022/05/10 04:34:11;;;;;;;13.18;4.50;;;10.50;99.90;;;;;;5047450;28;20017;-51
2022/05/10 04:36:36;;;;;;;10.65;4.38;;;10.40;99.90;;;;;;5047915;28;20349;-50
2022/05/10 04:39:03;;;;;;;10.18;3.88;;;10.60;99.90;;;;;;5047730;28;20025;-51
2022/05/10 04:41:33;;;;;;;14.93;4.82;;;10.60;99.90;;;;;;5047722;28;20025;-50
2022/05/10 04:44:05;;;;;;;12.57;4.38;;;10.60;99.90;;;;;;5047800;28;20053;-51
2022/05/10 04:46:32;;;;;;;14.02;4.18;;;10.60;99.90;;;;;;5047038;28;20381;-51
2022/05/10 04:48:59;;;;;;;12.25;3.65;;;10.70;99.90;;;;;;5047524;28;20626;-51
2022/05/10 04:51:25;;;;;;;11.80;4.33;;;10.70;99.90;;;;;;5047674;28;20041;-50
2022/05/10 04:53:51;;;;;;;13.60;3.85;;;10.80;99.90;;;;;;5047744;28;20369;-50
2022/05/10 04:56:17;;;;;;;14.07;3.55;;;10.80;99.90;;;;;;5048589;28;20141;-50
2022/05/10 04:58:43;;;;;;;10.77;3.65;;;10.80;99.90;;;;;;5048550;28;20104;-51
2022/05/10 05:01:16;;;;;;;10.38;4.22;;;11.00;99.90;;;;;;5052156;28;20020;-50
2022/05/10 05:03:47;;;;;;;7.28;3.50;;;11.00;99.90;;;;;;5052906;28;20067;-51
2022/05/10 05:06:13;;;;;;;10.98;4.30;;;11.00;99.90;;;;;;5053130;28;20473;-51
2022/05/10 05:08:39;;;;;;;9.30;4.13;;;11.10;99.90;;;;;;5052803;28;20100;-50
2022/05/10 05:11:05;;;;;;;8.65;3.97;;;11.10;99.90;;;;;;5052755;28;20116;-50
2022/05/10 05:13:31;;;;;;;8.50;3.90;;;11.20;99.90;;;;;;5053020;28;20029;-51
2022/05/10 05:15:56;;;;;;;10.68;3.15;;;11.30;99.90;;;;;;5052771;28;20029;-50
2022/05/10 05:18:22;;;;;;;8.73;2.90;;;11.40;99.90;;;;;;5035086;28;20108;-50
2022/05/10 05:20:49;;;;;;;9.38;3.60;;;11.40;99.90;;;;;;5052819;28;20411;-50
2022/05/10 05:23:19;;;;;;;11.63;3.60;;;11.50;99.90;;;;;;5052881;28;20054;-50
2022/05/10 05:25:44;;;;;;;10.65;3.38;;;11.50;99.90;;;;;;5052703;28;20033;-50
2022/05/10 05:28:10;;;;;;;13.32;2.95;;;11.70;99.90;;;;;;5052130;28;20029;-50
2022/05/10 05:30:37;;;;;;;8.45;3.50;;;11.80;99.90;;;;;;5047745;28;20090;-51
2022/05/10 05:33:03;;;;;;;9.98;3.25;;;11.90;99.90;;;;;;5052336;28;20128;-51
2022/05/10 05:35:29;;;;;;;7.93;3.08;;;11.90;99.90;;;;;;5034564;28;20033;-50
2022/05/10 05:37:55;;;;;;;10.02;3.30;;;12.00;99.90;;;;;;5051979;28;20059;-50
2022/05/10 05:40:23;;;;;;;9.93;2.85;;;12.00;99.90;;;;;;5051824;28;20025;-50
2022/05/10 05:42:50;;;;;;;13.05;3.85;;;12.10;99.90;;;;;;5051979;28;20044;-51
2022/05/10 05:45:19;;;;;;;11.05;3.35;;;12.20;99.90;;;;;;5053257;28;20039;-51
2022/05/10 05:47:45;;;;;;;12.10;4.22;;;12.30;99.90;;;;;;5053311;28;20473;-51
2022/05/10 05:50:14;;;;;;;8.15;3.33;;;12.40;99.90;;;;;;5052177;28;20029;-51
2022/05/10 05:52:41;;;;;;;13.40;3.22;;;12.40;99.90;;;;;;5052223;28;20037;-50
2022/05/10 05:55:08;;;;;;;9.73;3.85;;;12.50;99.90;;;;;;5052086;28;20033;-51
2022/05/10 05:57:34;;;;;;;;;;;12.60;99.90;;;;;;5034750;28;20044;-51
2022/05/10 06:00:00;;;;;;;13.38;3.28;;;12.60;99.90;;;;;;5052203;28;19904;-52
2022/05/10 06:02:27;;;;;;;10.82;3.50;;;12.70;99.90;;;;;;5051938;28;20021;-51
2022/05/10 06:04:53;;;;;;;13.23;4.05;;;12.80;99.90;;;;;;5051844;28;20071;-51
2022/05/10 06:07:19;;;;;;;10.18;4.28;;;12.90;99.90;;;;;;5051541;28;20041;-51
2022/05/10 06:09:47;;;;;;;11.65;4.03;;;13.10;99.90;;;;;;5033832;28;20021;-50
2022/05/10 06:12:15;;;;;;;10.25;3.88;;;13.10;99.90;;;;;;5050943;28;20132;-50
2022/05/10 06:14:41;;;;;;;10.40;3.33;;;13.20;99.90;;;;;;5051827;28;20439;-50
2022/05/10 06:17:08;;;;;;;10.88;3.20;;;13.20;99.90;;;;;;5051465;28;20051;-50
2022/05/10 06:19:36;;;;;;;7.00;3.60;;;13.30;99.90;;;;;;5033287;28;20021;-50
2022/05/10 06:22:03;;;;;;;8.30;3.35;;;13.30;99.90;;;;;;5051090;28;20075;-50
2022/05/10 06:24:29;;;;;;;10.27;3.33;;;13.30;99.90;;;;;;5051183;28;20569;-50
2022/05/10 06:26:55;;;;;;;9.43;3.28;;;13.40;99.90;;;;;;5051763;28;20153;-50
2022/05/10 06:29:21;;;;;;;17.17;4.10;;;13.50;99.90;;;;;;5051180;28;20469;-50
2022/05/10 06:31:47;;;;;;;10.98;3.78;;;13.50;99.90;;;;;;5033157;28;20033;-50
2022/05/10 06:34:14;;;;;;;17.48;4.47;;;13.60;99.90;;;;;;5033397;28;20025;-50
2022/05/10 06:36:40;;;;;;;7.77;3.10;;;13.70;99.90;;;;;;5051197;28;20036;-50
2022/05/10 06:39:06;;;;;;;13.60;3.75;;;13.80;99.90;;;;;;5050957;28;20288;-50
2022/05/10 06:41:32;;;;;;;9.13;3.83;;;13.90;99.90;;;;;;5051039;28;20495;-50
2022/05/10 06:43:59;;;;;;;7.97;3.10;;;14.00;99.90;;;;;;5050836;28;20222;-50
2022/05/10 06:46:26;;;;;;;12.32;3.53;;;14.20;99.90;;;;;;5050717;28;20435;-50
2022/05/10 06:48:52;;;;;;;7.30;3.78;;;14.40;99.90;;;;;;5050862;28;20033;-50
2022/05/10 06:51:19;;;;;;;6.75;3.13;;;14.40;99.90;;;;;;5050836;28;20124;-50
2022/05/10 06:53:45;;;;;;;8.73;2.67;;;14.40;99.90;;;;;;5050357;28;20021;-50
2022/05/10 06:56:11;;;;;;;12.07;3.35;;;14.50;99.90;;;;;;5050407;28;20036;-51
2022/05/10 06:58:37;;;;;;;9.23;3.08;;;14.50;99.90;;;;;;5050523;28;20021;-51
2022/05/10 07:01:05;;;;;;;7.57;3.35;;;14.50;99.90;;;;;;5050758;28;20110;-50
2022/05/10 07:03:33;;;;;;;;;;;14.70;99.90;;;;;;5050876;28;20158;-51
2022/05/10 07:06:05;;;;;;;20.13;4.72;;;14.90;99.90;;;;;;5050931;28;19955;-50
2022/05/10 07:08:30;;;;;;;8.10;3.85;;;15.00;99.90;;;;;;5050185;28;20070;-50
2022/05/10 07:10:56;;;;;;;12.32;4.45;;;15.00;99.90;;;;;;5050546;28;20116;-50
2022/05/10 07:13:25;;;;;;;10.77;3.17;;;15.00;99.90;;;;;;5050510;28;20042;-50
2022/05/10 07:15:51;;;;;;;9.73;3.78;;;15.20;99.90;;;;;;5050595;28;20025;-50
2022/05/10 07:18:17;;;;;;;10.00;4.00;;;15.50;99.90;;;;;;5050166;28;20017;-51
2022/05/10 07:20:44;;;;;;;9.85;3.58;;;15.70;99.90;;;;;;5050292;28;20104;-50
2022/05/10 07:23:11;;;;;;;17.70;4.80;;;15.80;99.90;;;;;;5049337;28;20028;-50
2022/05/10 07:25:37;;;;;;;9.93;3.40;;;15.80;99.90;;;;;;5050569;28;20086;-51
2022/05/10 07:28:05;;;;;;;11.90;2.97;;;15.90;99.90;;;;;;5050125;28;20025;-50
2022/05/10 07:30:31;;;;;;;8.15;3.80;;;16.10;99.90;;;;;;5045439;28;20025;-50
2022/05/10 07:32:57;;;;;;;10.07;3.20;;;16.20;99.90;;;;;;5050440;28;20032;-50
2022/05/10 07:38:10;;;;;;;11.63;3.30;;;15.90;99.90;;;;;;5050476;28;20546;-50
2022/05/10 07:40:37;;;;;;;7.80;3.85;;;16.00;99.90;;;;;;5049635;28;20040;-50
2022/05/10 07:43:03;;;;;;;9.73;3.60;;;16.20;99.90;;;;;;5049618;28;20052;-50
2022/05/10 07:45:29;;;;;;;8.43;3.58;;;16.30;99.90;;;;;;5050109;28;20040;-50
2022/05/10 07:47:55;;;;;;;7.15;3.38;;;16.30;99.90;;;;;;5049648;28;20017;-50
2022/05/10 07:50:20;;;;;;;10.93;3.55;;;16.40;99.90;;;;;;5031556;28;20019;-51
2022/05/10 07:52:46;;;;;;;6.57;3.15;;;16.50;99.90;;;;;;5049931;28;20097;-50
2022/05/10 07:55:13;;;;;;;10.52;3.80;;;16.60;99.90;;;;;;5049596;28;20469;-51
2022/05/10 07:57:39;;;;;;;6.33;2.87;;;16.70;99.90;;;;;;5049814;28;20606;-51
2022/05/10 08:00:08;;;;;;;8.33;3.80;;;16.70;99.90;;;;;;5049707;28;20267;-50
2022/05/10 08:02:35;;;;;;;9.48;3.65;;;16.70;99.90;;;;;;5049574;28;20303;-50
2022/05/10 08:05:02;;;;;;;20.00;3.50;;;16.70;99.90;;;;;;5049911;28;20021;-51
2022/05/10 08:07:28;;;;;;;8.00;3.83;;;16.70;99.90;;;;;;5031633;28;20455;-50
2022/05/10 08:09:54;;;;;;;7.13;3.30;;;17.00;99.90;;;;;;5049539;28;20139;-50
2022/05/10 08:12:20;;;;;;;10.07;3.33;;;17.20;99.90;;;;;;5049702;28;20123;-50
2022/05/10 08:14:46;;;;;;;7.70;3.85;;;17.20;99.90;;;;;;5049972;28;20025;-50
2022/05/10 08:17:12;;;;;;;7.65;3.42;;;17.40;99.90;;;;;;5049177;28;20048;-49
2022/05/10 08:19:38;;;;;;;6.78;3.08;;;17.70;99.90;;;;;;5049785;28;20037;-50
2022/05/10 08:22:03;;;;;;;9.48;3.05;;;17.90;99.90;;;;;;5049382;28;20086;-50
2022/05/10 08:24:29;;;;;;;8.88;3.65;;;17.90;97.80;;;;;;5050172;28;20067;-50
2022/05/10 08:26:55;;;;;;;10.10;3.97;;;17.90;96.40;;;;;;5049377;28;20056;-50
2022/05/10 08:29:21;;;;;;;14.05;4.40;;;18.10;97.70;;;;;;5049382;28;20029;-50
2022/05/10 08:31:47;;;;;;;24.55;4.78;;;18.00;94.00;;;;;;5044896;28;20143;-50
2022/05/10 08:34:12;;;;;;;7.43;3.83;;;18.10;93.60;;;;;;5050046;28;20032;-50
2022/05/10 08:36:38;;;;;;;6.18;3.30;;;18.10;92.20;;;;;;5055936;28;20397;-50
2022/05/10 08:39:04;;;;;;;16.38;4.57;;;18.00;86.20;;;;;;5055922;28;20407;-50
2022/05/10 08:41:43;;;;;;;7.07;3.13;;;18.10;88.20;;;;;;5055747;28;20408;-49
2022/05/10 08:44:16;;;;;;;7.18;3.10;;;18.30;93.00;;;;;;5055392;28;20049;-50
2022/05/10 08:46:48;;;;;;;7.68;3.47;;;18.30;86.00;;;;;;5056123;28;20103;-50
2022/05/10 08:49:36;;;;;;;8.15;3.42;;;18.30;84.20;;;;;;5055792;28;20044;-50
2022/05/10 08:52:04;;;;;;;9.00;3.00;;;18.40;82.80;;;;;;5056147;28;20041;-50
2022/05/10 08:54:30;;;;;;;7.38;3.03;;;18.50;80.90;;;;;;5055409;28;20893;-50
2022/05/10 08:57:00;;;;;;;6.50;3.13;;;18.90;83.20;;;;;;5055700;28;20025;-51
2022/05/10 08:59:36;;;;;;;8.70;3.38;;;18.90;80.70;;;;;;5055813;28;20584;-50
2022/05/10 09:02:34;;;;;;;8.73;2.90;;;19.00;75.50;;;;;;5055557;28;20108;-50
2022/05/10 09:05:24;;;;;;;8.93;2.88;;;19.10;73.90;;;;;;5022674;28;20080;-50
2022/05/10 09:08:11;;;;;;;7.95;2.92;;;19.30;78.40;;;;;;5055603;28;20056;-50
2022/05/10 09:10:41;;;;;;;7.47;2.90;;;19.30;73.30;;;;;;5055539;28;20125;-50
2022/05/10 09:13:11;;;;;;;8.93;2.75;;;19.40;71.40;;;;;;5055388;28;20025;-50
2022/05/10 09:15:47;;;;;;;9.68;2.92;;;19.40;68.90;;;;;;5055529;28;20714;-50
2022/05/10 09:18:36;;;;;;;10.50;4.18;;;19.50;72.50;;;;;;5055661;28;20056;-50
2022/05/10 09:21:22;;;;;;;4.60;2.63;;;19.90;74.20;;;;;;5043006;28;20037;-51
2022/05/10 09:24:25;;;;;;;16.77;4.25;;;20.00;72.20;;;;;;5055197;28;20033;-50
2022/05/10 09:26:55;;;;;;;9.93;3.40;;;19.90;65.00;;;;;;5055439;28;20551;-50
2022/05/10 09:29:27;;;;;;;9.20;2.97;;;19.70;66.90;;;;;;5055741;28;20117;-50
2022/05/10 09:34:46;;;;;;;6.93;3.20;;;19.60;64.70;;;;;;5055535;28;20064;-51
2022/05/10 09:37:26;;;;;;;7.95;2.67;;;19.40;64.20;;;;;;5055394;28;20029;-50
2022/05/10 09:39:55;;;;;;;7.90;2.78;;;19.40;64.20;;;;;;5055301;28;20451;-49
2022/05/10 09:42:43;;;;;;;10.15;2.80;;;19.40;66.40;;;;;;5055118;28;20021;-50
2022/05/10 09:45:22;;;;;;;11.05;3.33;;;19.60;67.50;;;;;;5055625;28;20039;-49
2022/05/10 09:48:02;;;;;;;9.63;2.58;;;20.30;65.00;;;;;;5051222;28;20029;-50
2022/05/10 09:50:32;;;;;;;8.85;3.05;;;20.50;63.40;;;;;;5051770;28;20037;-49
2022/05/10 09:53:25;;;;;;;7.28;2.67;;;20.50;64.30;;;;;;5051953;28;20039;-49
2022/05/10 09:56:31;;;;;;;10.20;3.58;;;20.60;61.80;;;;;;5033878;28;20400;-50
2022/05/10 09:59:04;;;;;;;13.55;3.20;;;20.80;62.80;;;;;;5050766;28;20041;-51
2022/05/10 10:01:43;;;;;;;6.95;2.70;;;20.50;60.50;;;;;;5051941;28;20025;-52
2022/05/10 10:04:20;;;;;;;7.55;2.92;;;20.60;62.80;;;;;;5051818;28;20036;-50
2022/05/10 10:07:06;;;;;;;;;;;20.80;62.00;;;;;;5052493;28;20041;-50
2022/05/10 10:09:35;;;;;;;5.93;3.08;;;20.50;62.60;;;;;;5051046;28;20521;-50
2022/05/10 10:12:01;;;;;;;7.65;3.33;;;20.00;62.50;;;;;;5051242;28;20040;-49
2022/05/10 10:14:38;;;;;;;7.75;2.60;;;19.90;62.20;;;;;;5051746;28;20025;-50
2022/05/10 10:17:05;;;;;;;7.90;2.30;;;19.80;62.90;;;;;;5051836;28;20025;-50
2022/05/10 10:19:41;;;;;;;7.18;3.15;;;19.80;62.00;;;;;;5051473;28;20170;-50
2022/05/10 10:22:17;;;;;;;8.10;3.20;;;20.20;61.40;;;;;;5051133;28;20020;-50
2022/05/10 10:25:05;;;;;;;6.75;2.28;;;20.80;63.80;;;;;;5051835;28;20033;-49
2022/05/10 10:27:53;;;;;;;9.32;3.38;;;21.20;61.10;;;;;;5051510;28;20029;-49
2022/05/10 10:30:29;;;;;;;8.85;3.20;;;20.50;57.70;;;;;;5046514;28;20565;-49
2022/05/10 10:33:11;;;;;;;6.93;2.75;;;20.70;58.10;;;;;;5051250;28;20037;-49
2022/05/10 10:35:54;;;;;;;9.98;2.70;;;21.40;57.50;;;;;;5051441;28;20473;-50
2022/05/10 10:38:55;;;;;;;11.60;2.88;;;21.40;57.80;;;;;;5051215;28;20120;-49
2022/05/10 10:41:42;;;;;;;7.38;2.72;;;20.90;57.80;;;;;;5050915;28;20036;-49
2022/05/10 10:44:17;;;;;;;6.45;2.25;;;21.60;56.20;;;;;;5050624;28;20049;-49
2022/05/10 10:46:54;;;;;;;8.18;3.17;;;22.40;57.50;;;;;;5050875;28;20029;-50
2022/05/10 10:49:25;;;;;;;7.88;2.75;;;22.60;51.80;;;;;;5051027;28;20040;-49
2022/05/10 10:51:51;;;;;;;6.25;2.15;;;22.20;51.70;;;;;;5050745;28;20041;-50
2022/05/10 10:54:20;;;;;;;5.32;2.25;;;22.40;53.40;;;;;;5039793;28;20028;-49
2022/05/10 10:56:57;;;;;;;6.93;2.53;;;22.80;49.00;;;;;;5031101;28;20087;-50
2022/05/10 10:59:34;;;;;;;4.55;2.00;;;23.00;48.30;;;;;;5031077;28;20072;-50
2022/05/10 11:02:47;;;;;;;5.70;2.47;;;23.10;52.10;;;;;;5031766;28;20620;-51
2022/05/10 11:05:38;;;;;;;8.50;2.50;;;23.10;50.30;;;;;;5023926;28;20477;-50
2022/05/10 11:08:17;;;;;;;8.57;2.90;;;22.50;51.10;;;;;;5030682;28;20481;-50
2022/05/10 11:11:00;;;;;;;10.00;2.80;;;22.70;49.90;;;;;;5030542;28;20120;-50
2022/05/10 11:14:01;;;;;;;11.95;2.88;;;22.90;50.50;;;;;;5030500;28;20084;-51
2022/05/10 11:16:38;;;;;;;4.95;2.45;;;23.20;50.10;;;;;;5004538;28;20816;-49
2022/05/10 11:19:41;;;;;;;7.05;2.42;;;23.40;52.30;;;;;;5030465;28;20039;-50
2022/05/10 11:22:12;;;;;;;9.02;2.20;;;23.50;48.30;;;;;;5030232;28;20044;-51
2022/05/10 11:25:06;;;;;;;7.90;2.55;;;23.70;49.10;;;;;;5030341;28;20049;-50
2022/05/10 11:27:57;;;;;;;7.78;2.30;;;24.00;50.90;;;;;;5029922;28;20036;-49
2022/05/10 11:30:51;;;;;;;7.78;2.30;;;24.00;51.00;;;;;;5036877;28;20110;-50
2022/05/10 11:33:29;;;;;;;5.78;2.10;;;24.10;48.80;;;;;;5050096;28;20037;-50
2022/05/10 11:36:27;;;;;;;4.47;1.92;;;24.40;50.00;;;;;;5050145;28;20021;-50
2022/05/10 11:39:34;;;;;;;4.70;2.38;;;24.70;48.20;;;;;;5018970;28;20036;-50
2022/05/10 11:42:35;;;;;;;11.95;3.08;;;24.40;47.70;;;;;;5049686;28;20069;-50
2022/05/10 11:45:32;;;;;;;8.52;2.47;;;24.40;48.00;;;;;;5050011;28;20041;-50
2022/05/10 11:48:01;;;;;;;5.60;2.42;;;24.40;48.40;;;;;;5050104;28;20054;-50
2022/05/10 11:54:09;;;;;;;8.85;3.40;;;24.60;46.90;;;;;;5047008;28;20570;-50
2022/05/10 11:56:39;;;;;;;9.77;3.28;;;24.50;47.10;;;;;;5049231;28;20037;-51
2022/05/10 11:59:12;;;;;;;5.75;2.88;;;24.10;46.00;;;;;;5042893;28;20017;-51
2022/05/10 12:01:48;;;;;;;8.43;3.03;;;23.90;47.90;;;;;;5039756;28;20033;-51
2022/05/10 12:04:42;;;;;;;8.85;2.83;;;24.00;49.20;;;;;;5040037;28;20380;-50
2022/05/10 12:07:19;;;;;;;12.18;3.00;;;24.50;48.80;;;;;;5029297;28;20120;-51
2022/05/10 12:09:51;;;;;;;;;;;24.50;47.40;;;;;;5029270;28;20179;-51
2022/05/10 12:12:37;;;;;;;8.00;2.60;;;24.50;46.20;;;;;;5029462;28;19956;-50
2022/05/10 12:21:21;;;;;;;4.80;2.25;;;24.30;45.10;;;;;;5029451;28;20063;-51
2022/05/10 12:24:20;;;;;;;6.13;2.55;;;24.60;46.40;;;;;;5029531;28;20573;-52
2022/05/10 12:26:48;;;;;;;8.07;2.75;;;24.10;44.90;;;;;;5029264;28;20144;-52
2022/05/10 12:29:38;;;;;;;7.63;2.95;;;24.30;43.70;;;;;;5035159;28;20508;-51
2022/05/10 12:32:04;;;;;;;5.53;2.50;;;24.60;45.00;;;;;;5039876;28;20040;-52
2022/05/10 12:34:54;;;;;;;4.88;2.42;;;24.90;40.00;;;;;;5039325;28;20033;-51
2022/05/10 12:37:25;;;;;;;8.02;2.83;;;24.90;45.00;;;;;;5039316;28;20017;-51
2022/05/10 12:40:08;;;;;;;6.95;2.70;;;25.50;47.80;;;;;;5039174;28;20074;-51
2022/05/10 12:43:03;;;;;;;7.70;2.38;;;25.90;44.70;;;;;;5039004;28;20043;-51
2022/05/10 12:45:31;;;;;;;7.82;2.70;;;25.50;45.20;;;;;;5035201;28;20041;-51
2022/05/10 12:48:25;;;;;;;8.40;2.58;;;24.80;44.00;;;;;;5029743;28;20020;-51
2022/05/10 12:51:02;;;;;;;7.70;2.40;;;24.80;42.80;;;;;;5039064;28;20055;-51
2022/05/10 12:53:56;;;;;;;7.72;2.53;;;25.20;42.50;;;;;;5039543;28;20014;-51
2022/05/10 12:56:28;;;;;;;7.43;3.03;;;25.40;43.20;;;;;;5028104;28;20036;-51
2022/05/10 12:58:59;;;;;;;4.38;2.13;;;24.90;41.00;;;;;;5036801;28;20021;-51
2022/05/10 13:01:31;;;;;;;5.40;2.10;;;25.10;39.80;;;;;;5038057;28;20048;-51
2022/05/10 13:04:02;;;;;;;5.38;2.20;;;25.50;42.60;;;;;;5039202;28;20025;-51
2022/05/10 13:06:58;;;;;;;5.72;2.30;;;25.70;40.80;;;;;;5038390;28;20021;-52
2022/05/10 13:09:33;;;;;;;4.75;2.05;;;26.00;42.60;;;;;;5029192;28;20029;-52
2022/05/10 13:12:31;;;;;;;11.05;2.50;;;26.30;40.90;;;;;;5028650;28;20081;-51
2022/05/10 13:15:08;;;;;;;4.88;2.63;;;26.00;38.40;;;;;;4995950;28;20094;-50
2022/05/10 13:17:35;;;;;;;7.00;2.30;;;26.40;38.80;;;;;;5029302;28;20037;-51
2022/05/10 13:20:08;;;;;;;5.93;2.58;;;26.20;39.70;;;;;;5028863;28;20389;-51
2022/05/10 13:22:35;;;;;;;5.63;2.40;;;26.10;40.20;;;;;;5031377;28;20034;-51
2022/05/10 13:25:04;;;;;;;9.98;2.40;;;26.00;38.70;;;;;;5032988;28;20108;-52
2022/05/10 13:27:37;;;;;;;5.78;2.10;;;25.50;39.70;;;;;;5032573;28;20059;-52
2022/05/10 13:30:16;;;;;;;7.15;2.75;;;25.40;37.70;;;;;;5032232;28;20029;-51